Time;durP1;ratioP1;P1;durP2;ratioP2;P2;SDS_P1;SDS_P2;PMS_P1;PMS_P2;Temp;Humidity;BMP_temperature;BMP_pressure;BME280_temperature;BME280_humidity;BME280_pressure;Samples;Min_cycle;Max_cycle;Signal;HPM_P1;HPM_P2
2022/01/27 00:05:49;;;;;;;1.48;1.38;;;1.20;99.90;;;;;;5032200;28;20461;-71
2022/01/27 00:08:19;;;;;;;2.55;2.35;;;0.80;99.90;;;;;;5034050;28;20060;-71
2022/01/27 00:10:58;;;;;;;1.25;1.15;;;0.40;99.90;;;;;;5034116;28;20492;-71
2022/01/27 00:13:32;;;;;;;1.33;1.27;;;0.10;99.90;;;;;;5034052;28;20500;-71
2022/01/27 00:16:12;;;;;;;2.10;1.77;;;-0.30;99.90;;;;;;5034159;28;20025;-71
2022/01/27 00:18:39;;;;;;;0.50;0.50;;;-0.60;99.90;;;;;;5017488;28;20021;-71
2022/01/27 00:21:05;;;;;;;10.98;2.35;;;-0.70;99.90;;;;;;5035301;28;20021;-71
2022/01/27 00:23:31;;;;;;;1.40;1.38;;;-0.80;99.90;;;;;;5033822;28;20029;-72
2022/01/27 00:25:57;;;;;;;1.20;1.20;;;-0.80;99.90;;;;;;5035112;28;20029;-71
2022/01/27 00:28:23;;;;;;;3.03;1.40;;;-0.80;99.90;;;;;;5035044;28;20026;-71
2022/01/27 00:30:48;;;;;;;1.70;1.58;;;-0.80;99.90;;;;;;5035015;28;20014;-71
2022/01/27 00:33:14;;;;;;;5.10;2.88;;;-0.90;99.90;;;;;;5033883;28;20021;-71
2022/01/27 00:35:40;;;;;;;7.57;4.00;;;-0.90;99.90;;;;;;5034863;28;20033;-71
2022/01/27 00:38:05;;;;;;;4.57;1.75;;;-1.00;99.90;;;;;;5034902;28;20037;-71
2022/01/27 00:40:31;;;;;;;4.07;3.70;;;-1.00;99.90;;;;;;5033653;28;20087;-71
2022/01/27 00:42:57;;;;;;;8.40;3.78;;;-1.00;99.90;;;;;;5033422;28;20033;-71
2022/01/27 00:45:24;;;;;;;0.95;0.95;;;-0.90;99.90;;;;;;5016923;28;20030;-71
2022/01/27 00:47:50;;;;;;;2.97;2.78;;;-1.00;99.90;;;;;;5034590;28;20113;-71
2022/01/27 00:50:18;;;;;;;5.57;5.15;;;-1.00;99.90;;;;;;5034697;28;20088;-71
2022/01/27 00:52:51;;;;;;;0.73;0.73;;;-0.90;99.90;;;;;;5016846;28;20022;-71
2022/01/27 00:55:18;;;;;;;1.63;1.50;;;-0.80;99.90;;;;;;5034608;28;20041;-71
2022/01/27 00:58:03;;;;;;;0.40;0.40;;;-0.50;99.90;;;;;;5033220;28;20025;-71
2022/01/27 01:00:44;;;;;;;3.92;3.05;;;-0.40;99.90;;;;;;5033286;28;20025;-71
2022/01/27 01:03:22;;;;;;;2.03;1.92;;;-0.60;99.90;;;;;;5033112;28;20040;-72
2022/01/27 01:11:45;;;;;;;4.40;4.00;;;-0.70;99.90;;;;;;5003336;28;20029;-71
2022/01/27 01:19:55;;;;;;;0.70;0.70;;;-0.80;99.90;;;;;;5034154;28;20072;-71
2022/01/27 01:31:10;;;;;;;3.10;2.50;;;-0.30;99.90;;;;;;5000498;28;20030;-71
2022/01/27 01:33:38;;;;;;;5.75;1.30;;;-0.30;99.90;;;;;;5032527;28;20269;-72
2022/01/27 01:36:13;;;;;;;0.50;0.50;;;-0.30;99.90;;;;;;5032464;28;20473;-71
2022/01/27 01:38:40;;;;;;;1.42;1.33;;;-0.20;99.90;;;;;;5032694;28;20025;-71
2022/01/27 01:41:05;;;;;;;2.55;2.08;;;-0.10;99.90;;;;;;5033742;28;20033;-71
2022/01/27 01:43:31;;;;;;;0.73;0.47;;;0.00;99.90;;;;;;5032238;28;20485;-71
2022/01/27 01:45:57;;;;;;;9.57;8.63;;;0.00;99.90;;;;;;5033535;28;20047;-71
2022/01/27 01:48:23;;;;;;;2.30;2.15;;;-0.30;99.90;;;;;;5015746;28;20516;-71
2022/01/27 01:50:49;;;;;;;4.60;3.85;;;-0.60;99.90;;;;;;5033538;28;20044;-71
2022/01/27 01:53:16;;;;;;;0.80;0.80;;;-0.90;99.90;;;;;;5032102;28;20057;-71
2022/01/27 01:55:41;;;;;;;2.40;2.22;;;-1.40;99.90;;;;;;5033375;28;20033;-71
2022/01/27 01:58:07;;;;;;;30.80;28.00;;;-1.40;99.90;;;;;;5033371;28;20386;-71
2022/01/27 02:00:33;;;;;;;2.15;2.05;;;-1.40;99.90;;;;;;5032068;28;20026;-71
2022/01/27 02:02:59;;;;;;;3.05;2.25;;;-1.30;99.90;;;;;;5015508;28;20121;-71
2022/01/27 02:05:30;;;;;;;1.95;1.85;;;-1.20;99.90;;;;;;5033287;28;20185;-71
2022/01/27 02:19:08;;;;;;;0.60;0.60;;;-0.40;99.90;;;;;;5031703;28;20079;-71
2022/01/27 02:21:41;;;;;;;0.88;0.80;;;-0.30;99.90;;;;;;5032910;28;20022;-71
2022/01/27 02:24:06;;;;;;;2.80;2.60;;;-0.30;99.90;;;;;;5031517;28;20033;-70
2022/01/27 02:26:32;;;;;;;0.50;0.50;;;-0.20;99.90;;;;;;5032871;28;20028;-71
2022/01/27 02:28:58;;;;;;;0.40;0.40;;;-0.10;99.90;;;;;;5031291;28;20029;-71
2022/01/27 02:31:23;;;;;;;0.40;0.40;;;-0.30;99.90;;;;;;5031473;28;20064;-71
2022/01/27 02:33:57;;;;;;;3.40;3.20;;;-0.50;99.90;;;;;;5015014;28;20528;-71
2022/01/27 02:36:22;;;;;;;0.85;0.85;;;-0.60;99.90;;;;;;5015070;28;20033;-71
2022/01/27 02:38:49;;;;;;;1.33;1.33;;;-0.50;99.90;;;;;;5032677;28;20033;-71
2022/01/27 02:41:16;;;;;;;2.78;1.88;;;-0.70;99.90;;;;;;5031407;28;20029;-71
2022/01/27 02:43:42;;;;;;;1.75;1.65;;;-0.70;99.90;;;;;;5031207;28;20052;-71
2022/01/27 02:46:19;;;;;;;0.85;0.85;;;-0.70;99.90;;;;;;5031217;28;20052;-71
2022/01/27 02:48:45;;;;;;;1.40;1.30;;;-0.60;99.90;;;;;;5031122;28;20032;-71
2022/01/27 02:51:11;;;;;;;10.90;2.15;;;-0.60;99.90;;;;;;5032411;28;20022;-71
2022/01/27 02:53:37;;;;;;;3.42;1.65;;;-0.60;99.90;;;;;;5031022;28;20013;-71
2022/01/27 02:56:03;;;;;;;2.88;2.47;;;-0.60;99.90;;;;;;5031006;28;20430;-71
2022/01/27 02:58:29;;;;;;;5.75;5.28;;;-0.50;99.90;;;;;;5032293;28;20056;-70
2022/01/27 03:00:54;;;;;;;2.42;1.25;;;-0.60;99.90;;;;;;5031063;28;20064;-71
2022/01/27 03:03:20;;;;;;;6.20;2.28;;;-0.70;99.90;;;;;;5032198;28;20489;-71
2022/01/27 03:05:46;;;;;;;0.65;0.65;;;-1.10;99.90;;;;;;5030901;28;20033;-71
2022/01/27 03:08:12;;;;;;;0.80;0.80;;;-1.60;99.90;;;;;;5032095;28;20022;-71
2022/01/27 03:10:48;;;;;;;3.17;2.83;;;-1.70;99.90;;;;;;5032209;28;20072;-71
2022/01/27 03:13:15;;;;;;;7.35;6.47;;;-1.90;99.90;;;;;;5031994;28;20029;-71
2022/01/27 03:15:40;;;;;;;0.68;0.68;;;-2.10;99.90;;;;;;5030810;28;20025;-71
2022/01/27 03:18:06;;;;;;;0.57;0.57;;;-2.10;99.90;;;;;;5030790;28;20079;-71
2022/01/27 03:20:33;;;;;;;4.22;1.13;;;-2.00;99.90;;;;;;5032059;28;20087;-71
2022/01/27 03:23:00;;;;;;;1.20;1.20;;;-1.80;99.90;;;;;;5031966;28;20045;-71
2022/01/27 03:25:26;;;;;;;0.93;0.93;;;-1.70;99.90;;;;;;5030507;28;20046;-71
2022/01/27 03:27:52;;;;;;;6.65;4.20;;;-1.40;99.90;;;;;;5031783;28;20033;-71
2022/01/27 03:30:17;;;;;;;1.77;1.67;;;-1.20;99.90;;;;;;5030613;28;20500;-71
2022/01/27 03:32:44;;;;;;;1.08;1.08;;;-1.20;99.90;;;;;;5030636;28;20358;-71
2022/01/27 03:35:10;;;;;;;0.50;0.50;;;-1.10;99.90;;;;;;5031820;28;20032;-71
2022/01/27 03:37:36;;;;;;;5.00;4.68;;;-1.10;99.90;;;;;;5030638;28;20027;-71
2022/01/27 03:40:02;;;;;;;1.58;1.52;;;-1.00;99.90;;;;;;5032799;28;20108;-71
2022/01/27 03:42:29;;;;;;;0.88;0.88;;;-0.90;99.90;;;;;;5035884;28;20040;-71
2022/01/27 03:44:55;;;;;;;1.17;1.17;;;-1.00;99.90;;;;;;5035838;28;20021;-71
2022/01/27 03:47:20;;;;;;;21.67;6.82;;;-1.00;99.90;;;;;;5034816;28;20226;-71
2022/01/27 03:49:46;;;;;;;0.50;0.50;;;-1.20;99.90;;;;;;5035814;28;20103;-71
2022/01/27 03:52:12;;;;;;;0.73;0.73;;;-1.30;99.90;;;;;;5035679;28;20524;-71
2022/01/27 03:54:37;;;;;;;0.85;0.85;;;-1.30;99.90;;;;;;5035663;28;20030;-71
2022/01/27 03:57:03;;;;;;;0.60;0.60;;;-1.10;99.90;;;;;;5034330;28;20255;-71
2022/01/27 03:59:30;;;;;;;3.40;1.60;;;-0.90;99.90;;;;;;5035582;28;20029;-71
2022/01/27 04:01:56;;;;;;;3.47;3.03;;;-0.80;99.90;;;;;;5034236;28;20396;-71
2022/01/27 04:04:23;;;;;;;2.40;2.20;;;-0.90;99.90;;;;;;5017793;28;20243;-71
2022/01/27 04:06:52;;;;;;;1.02;1.02;;;-0.90;99.90;;;;;;5034265;28;20030;-70
2022/01/27 04:09:18;;;;;;;0.40;0.40;;;-1.00;99.90;;;;;;5034172;28;20034;-71
2022/01/27 04:11:46;;;;;;;0.45;0.45;;;-1.10;99.90;;;;;;5034072;28;20404;-71
2022/01/27 04:14:11;;;;;;;2.40;2.30;;;-1.20;99.90;;;;;;5034401;28;20075;-71
2022/01/27 04:16:37;;;;;;;1.05;1.05;;;-1.30;99.90;;;;;;5035310;28;20025;-71
2022/01/27 04:19:03;;;;;;;0.50;0.50;;;-1.20;99.90;;;;;;5035541;28;20108;-71
2022/01/27 04:21:29;;;;;;;1.05;1.05;;;-1.10;99.90;;;;;;5034020;28;20555;-71
2022/01/27 04:23:55;;;;;;;0.95;0.95;;;-1.10;99.90;;;;;;5033774;28;20369;-71
2022/01/27 04:26:28;;;;;;;1.15;1.15;;;-1.10;99.90;;;;;;5033692;28;20029;-71
2022/01/27 04:28:54;;;;;;;0.60;0.60;;;-1.00;99.90;;;;;;5035028;28;20083;-71
2022/01/27 04:31:22;;;;;;;3.40;1.48;;;-0.90;99.90;;;;;;5035100;28;20025;-71
2022/01/27 04:33:48;;;;;;;8.65;2.58;;;-0.90;99.90;;;;;;5033676;28;20427;-71
2022/01/27 04:36:24;;;;;;;0.57;0.57;;;-1.50;99.90;;;;;;5035015;28;20065;-71
2022/01/27 04:39:07;;;;;;;1.92;1.83;;;-1.60;99.90;;;;;;5034923;28;20032;-70
2022/01/27 04:44:18;;;;;;;1.77;1.67;;;-1.90;99.90;;;;;;5034756;28;20041;-70
2022/01/27 04:47:08;;;;;;;1.50;1.35;;;-1.80;99.90;;;;;;5033457;28;20541;-70
2022/01/27 04:49:32;;;;;;;0.47;0.47;;;-1.70;99.90;;;;;;5033299;28;20036;-71
2022/01/27 04:51:58;;;;;;;1.33;1.33;;;-1.70;99.90;;;;;;5033263;28;20101;-71
2022/01/27 04:54:30;;;;;;;0.40;0.40;;;-1.70;99.90;;;;;;5033371;28;20544;-71
2022/01/27 04:56:59;;;;;;;12.18;3.95;;;-1.40;99.90;;;;;;5034617;28;20017;-71
2022/01/27 04:59:29;;;;;;;2.13;1.30;;;-1.30;99.90;;;;;;5034606;28;20021;-71
2022/01/27 05:02:05;;;;;;;6.40;3.05;;;-1.50;99.90;;;;;;5033153;28;20550;-71
2022/01/27 05:04:35;;;;;;;0.80;0.80;;;-1.70;99.90;;;;;;5034486;28;20496;-71
2022/01/27 05:07:01;;;;;;;5.22;2.63;;;-1.70;99.90;;;;;;5016935;28;20036;-71
2022/01/27 05:09:27;;;;;;;2.25;1.40;;;-1.60;99.90;;;;;;5033050;28;20026;-71
2022/01/27 05:12:10;;;;;;;1.25;1.25;;;-1.50;99.90;;;;;;5034170;28;20040;-71
2022/01/27 05:14:36;;;;;;;0.50;0.50;;;-1.40;99.90;;;;;;5034186;28;20028;-71
2022/01/27 05:17:02;;;;;;;3.40;3.17;;;-1.20;99.90;;;;;;5034093;28;20022;-71
2022/01/27 05:19:27;;;;;;;0.40;0.40;;;-1.10;99.90;;;;;;5034224;28;20029;-71
2022/01/27 05:21:53;;;;;;;0.85;0.85;;;-1.10;99.90;;;;;;5034103;28;20022;-71
2022/01/27 05:24:19;;;;;;;0.50;0.50;;;-1.00;99.90;;;;;;5034104;28;20108;-71
2022/01/27 05:26:45;;;;;;;2.50;2.40;;;-1.20;99.90;;;;;;5033919;28;20022;-71
2022/01/27 05:29:11;;;;;;;2.92;1.38;;;-1.40;99.90;;;;;;5033915;28;20041;-72
2022/01/27 05:31:38;;;;;;;1.63;1.52;;;-1.70;99.90;;;;;;5033840;28;20389;-71
2022/01/27 05:34:05;;;;;;;2.45;2.35;;;-1.80;99.90;;;;;;5033875;28;20033;-71
2022/01/27 05:36:31;;;;;;;0.50;0.50;;;-1.90;99.90;;;;;;5033778;28;20146;-71
2022/01/27 05:38:57;;;;;;;1.80;1.67;;;-2.10;99.90;;;;;;5033641;28;20022;-71
2022/01/27 05:41:23;;;;;;;2.08;1.20;;;-2.20;99.90;;;;;;5033756;28;20029;-71
2022/01/27 05:43:49;;;;;;;0.50;0.50;;;-2.10;99.90;;;;;;5033580;28;20036;-71
2022/01/27 05:46:15;;;;;;;1.60;1.45;;;-2.00;99.90;;;;;;5033496;28;20025;-71
2022/01/27 05:48:40;;;;;;;0.45;0.45;;;-2.00;99.90;;;;;;5031740;28;20503;-71
2022/01/27 05:51:06;;;;;;;0.40;0.40;;;-2.00;99.90;;;;;;5032043;28;20026;-71
2022/01/27 05:53:32;;;;;;;0.40;0.40;;;-1.80;99.90;;;;;;5032120;28;20029;-71
2022/01/27 05:55:59;;;;;;;0.40;0.40;;;-1.80;99.90;;;;;;5033435;28;20029;-71
2022/01/27 05:58:25;;;;;;;0.50;0.50;;;-1.60;99.90;;;;;;5033291;28;20029;-71
2022/01/27 06:00:51;;;;;;;0.40;0.40;;;-1.30;99.90;;;;;;5033336;28;20071;-71
2022/01/27 06:03:17;;;;;;;0.50;0.50;;;-1.20;99.90;;;;;;5032800;28;20535;-70
2022/01/27 06:05:43;;;;;;;0.40;0.40;;;-0.90;99.90;;;;;;5031885;28;20033;-71
2022/01/27 06:08:09;;;;;;;0.47;0.47;;;-0.80;99.90;;;;;;5033238;28;20029;-71
2022/01/27 06:10:35;;;;;;;0.40;0.40;;;-0.80;99.90;;;;;;5033146;28;20032;-71
2022/01/27 06:13:00;;;;;;;0.38;0.38;;;-0.60;99.90;;;;;;5033055;28;20034;-71
2022/01/27 06:15:27;;;;;;;1.77;1.67;;;-0.40;99.90;;;;;;5032965;28;20045;-71
2022/01/27 06:17:53;;;;;;;0.45;0.45;;;-0.10;99.90;;;;;;5032953;28;20025;-71
2022/01/27 06:20:20;;;;;;;0.47;0.47;;;-0.10;99.90;;;;;;5031656;28;20075;-72
2022/01/27 06:22:46;;;;;;;0.40;0.40;;;0.10;99.90;;;;;;5031708;28;20105;-71
2022/01/27 06:25:13;;;;;;;0.30;0.30;;;0.20;99.90;;;;;;5032731;28;20025;-71
2022/01/27 06:27:40;;;;;;;0.50;0.50;;;0.20;99.90;;;;;;5015106;28;20120;-71
2022/01/27 06:30:08;;;;;;;0.40;0.40;;;0.40;99.90;;;;;;5033034;28;20029;-71
2022/01/27 06:32:34;;;;;;;0.40;0.40;;;0.40;99.90;;;;;;5032684;28;20040;-71
2022/01/27 06:35:03;;;;;;;1.13;1.02;;;0.50;99.90;;;;;;5031631;28;20029;-72
2022/01/27 06:37:30;;;;;;;1.25;1.23;;;0.60;99.90;;;;;;5032565;28;20124;-71
2022/01/27 06:39:56;;;;;;;0.40;0.40;;;0.40;99.90;;;;;;5032484;28;20107;-71
2022/01/27 06:42:21;;;;;;;0.40;0.40;;;0.40;99.90;;;;;;5031236;28;20077;-71
2022/01/27 06:44:47;;;;;;;0.50;0.50;;;0.50;99.90;;;;;;5032105;28;20349;-71
2022/01/27 06:47:14;;;;;;;0.65;0.65;;;0.40;99.90;;;;;;5032200;28;20026;-73
2022/01/27 06:49:39;;;;;;;0.40;0.40;;;0.40;99.90;;;;;;5032339;28;20021;-73
2022/01/27 06:52:06;;;;;;;0.30;0.30;;;0.60;99.90;;;;;;5031058;28;20036;-73
2022/01/27 06:54:33;;;;;;;0.30;0.30;;;0.60;99.90;;;;;;5030946;28;20025;-73
2022/01/27 06:56:59;;;;;;;0.88;0.88;;;0.80;99.90;;;;;;5030467;28;20028;-72
2022/01/27 06:59:25;;;;;;;0.40;0.40;;;0.80;99.90;;;;;;5030570;28;20025;-73
2022/01/27 07:01:50;;;;;;;0.40;0.40;;;0.80;99.90;;;;;;5030837;28;20033;-73
2022/01/27 07:04:16;;;;;;;2.15;1.95;;;1.00;99.90;;;;;;5030707;28;20053;-73
2022/01/27 07:06:42;;;;;;;0.30;0.30;;;1.00;99.90;;;;;;5030776;28;20052;-73
2022/01/27 07:09:07;;;;;;;1.10;0.50;;;1.10;99.90;;;;;;5030743;28;20026;-72
2022/01/27 07:11:33;;;;;;;0.40;0.40;;;1.20;99.90;;;;;;5030569;28;20451;-72
2022/01/27 07:13:59;;;;;;;1.63;1.52;;;1.10;99.60;;;;;;5031841;28;20025;-72
2022/01/27 07:16:25;;;;;;;2.97;1.33;;;1.10;99.00;;;;;;5029767;28;20474;-72
2022/01/27 07:18:52;;;;;;;1.67;0.55;;;1.20;98.70;;;;;;5031146;28;20102;-72
2022/01/27 07:21:19;;;;;;;0.38;0.38;;;1.30;97.90;;;;;;5031138;28;20042;-72
2022/01/27 07:23:46;;;;;;;0.40;0.40;;;1.40;98.50;;;;;;5031759;28;20029;-72
2022/01/27 07:26:13;;;;;;;0.30;0.30;;;1.40;97.20;;;;;;5030900;28;20505;-72
2022/01/27 07:28:39;;;;;;;0.40;0.40;;;1.50;98.30;;;;;;5031932;28;20545;-72
2022/01/27 07:31:05;;;;;;;0.30;0.30;;;1.50;96.90;;;;;;5030689;28;20108;-72
2022/01/27 07:33:31;;;;;;;0.30;0.30;;;1.50;96.20;;;;;;5031534;28;20110;-72
2022/01/27 07:35:56;;;;;;;0.40;0.40;;;1.50;96.00;;;;;;5030812;28;20032;-72
2022/01/27 07:38:23;;;;;;;3.53;3.30;;;1.50;96.40;;;;;;5030360;28;20159;-70
2022/01/27 07:40:50;;;;;;;0.30;0.30;;;1.40;95.30;;;;;;5031686;28;20045;-71
2022/01/27 07:43:16;;;;;;;0.50;0.50;;;1.30;95.00;;;;;;5050011;28;20078;-71
2022/01/27 07:45:42;;;;;;;0.40;0.40;;;1.10;94.80;;;;;;5051459;28;20056;-71
2022/01/27 07:48:08;;;;;;;1.70;1.42;;;1.20;95.10;;;;;;5033710;28;20036;-71
2022/01/27 07:50:34;;;;;;;0.40;0.40;;;1.10;95.20;;;;;;5051464;28;20036;-71
2022/01/27 07:53:00;;;;;;;0.68;0.68;;;1.20;95.80;;;;;;5051217;28;20028;-70
2022/01/27 07:55:26;;;;;;;0.52;0.52;;;1.30;96.20;;;;;;5050142;28;20039;-71
2022/01/27 07:57:52;;;;;;;0.40;0.40;;;1.30;95.70;;;;;;5031380;28;20104;-71
2022/01/27 08:00:18;;;;;;;0.40;0.40;;;1.40;95.90;;;;;;5031554;28;20025;-70
2022/01/27 08:02:45;;;;;;;0.30;0.30;;;1.30;95.30;;;;;;5031259;28;20070;-70
2022/01/27 08:05:12;;;;;;;0.40;0.40;;;1.50;95.60;;;;;;5030231;28;20028;-70
2022/01/27 08:07:38;;;;;;;0.30;0.30;;;1.50;94.50;;;;;;5031376;28;20366;-70
2022/01/27 08:10:04;;;;;;;1.85;1.42;;;1.60;94.40;;;;;;5031290;28;20465;-69
2022/01/27 08:12:30;;;;;;;0.40;0.40;;;1.80;94.30;;;;;;5031353;28;20497;-70
2022/01/27 08:14:56;;;;;;;0.30;0.30;;;1.90;94.20;;;;;;5031265;28;20049;-70
2022/01/27 08:17:21;;;;;;;0.30;0.30;;;2.00;94.70;;;;;;5031395;28;20034;-71
2022/01/27 08:19:47;;;;;;;0.30;0.30;;;2.00;93.70;;;;;;5031494;28;20030;-70
2022/01/27 08:22:13;;;;;;;0.40;0.40;;;2.10;93.80;;;;;;5031454;28;20041;-70
2022/01/27 08:24:39;;;;;;;0.30;0.30;;;2.10;93.80;;;;;;5031069;28;20049;-71
2022/01/27 08:27:07;;;;;;;0.38;0.38;;;2.10;93.80;;;;;;5033427;28;20485;-71
2022/01/27 08:29:41;;;;;;;0.30;0.30;;;2.20;93.40;;;;;;5034854;28;20025;-73
2022/01/27 08:32:10;;;;;;;0.30;0.30;;;2.30;94.00;;;;;;5033406;28;20033;-71
2022/01/27 08:34:39;;;;;;;0.50;0.50;;;2.30;93.10;;;;;;5033206;28;20103;-71
2022/01/27 08:37:12;;;;;;;0.50;0.50;;;2.40;93.70;;;;;;5045924;28;20025;-71
2022/01/27 08:39:38;;;;;;;0.30;0.30;;;2.60;92.80;;;;;;5039174;28;20080;-70
2022/01/27 08:42:05;;;;;;;0.30;0.30;;;2.70;92.30;;;;;;5042772;28;20102;-70
2022/01/27 08:44:31;;;;;;;0.45;0.45;;;2.70;91.60;;;;;;5043498;28;20288;-69
2022/01/27 08:46:57;;;;;;;0.30;0.30;;;2.70;91.00;;;;;;5043530;28;20424;-70
2022/01/27 08:49:25;;;;;;;6.22;0.40;;;2.70;90.60;;;;;;5048897;28;20112;-70
2022/01/27 08:51:53;;;;;;;0.38;0.38;;;2.80;91.00;;;;;;5054199;28;20504;-72
2022/01/27 08:54:19;;;;;;;4.22;1.35;;;2.80;90.70;;;;;;5053934;28;20029;-72
2022/01/27 08:56:45;;;;;;;0.40;0.40;;;2.80;90.40;;;;;;5054160;28;20488;-71
2022/01/27 08:59:11;;;;;;;0.30;0.30;;;2.80;90.60;;;;;;5035928;28;20091;-72
2022/01/27 09:01:38;;;;;;;1.20;1.08;;;2.90;90.30;;;;;;5052764;28;20416;-72
2022/01/27 09:04:04;;;;;;;0.40;0.40;;;2.80;90.00;;;;;;5053828;28;20021;-72
2022/01/27 09:06:30;;;;;;;1.05;0.50;;;2.80;89.90;;;;;;5053826;28;20108;-72
2022/01/27 09:08:57;;;;;;;0.30;0.30;;;2.80;90.00;;;;;;5052500;28;20108;-72
2022/01/27 09:11:23;;;;;;;0.30;0.30;;;2.80;90.00;;;;;;5052607;28;20028;-72
2022/01/27 09:13:49;;;;;;;0.32;0.32;;;2.90;90.00;;;;;;5053563;28;20104;-72
2022/01/27 09:16:16;;;;;;;0.28;0.28;;;2.90;89.30;;;;;;5053717;28;20072;-73
2022/01/27 09:18:41;;;;;;;0.63;0.63;;;3.00;90.10;;;;;;5053648;28;20116;-73
2022/01/27 09:21:15;;;;;;;0.32;0.32;;;3.20;89.00;;;;;;5052522;28;20095;-72
2022/01/27 09:23:41;;;;;;;0.30;0.30;;;3.30;88.20;;;;;;5053489;28;20036;-73
2022/01/27 09:26:21;;;;;;;0.40;0.40;;;3.50;87.30;;;;;;5035652;28;20120;-72
2022/01/27 09:28:48;;;;;;;0.30;0.30;;;3.50;88.50;;;;;;5053560;28;20484;-72
2022/01/27 09:31:13;;;;;;;0.30;0.30;;;3.60;86.20;;;;;;5053482;28;20425;-72
2022/01/27 09:33:39;;;;;;;0.30;0.30;;;3.60;85.50;;;;;;5048293;28;20108;-72
2022/01/27 09:36:11;;;;;;;0.40;0.40;;;3.80;86.40;;;;;;5032709;28;20032;-71
2022/01/27 09:38:37;;;;;;;0.50;0.50;;;4.00;84.10;;;;;;5035793;28;20021;-70
2022/01/27 09:41:03;;;;;;;0.30;0.30;;;4.00;83.30;;;;;;5033418;28;20152;-71
2022/01/27 09:43:30;;;;;;;0.75;0.75;;;4.10;82.90;;;;;;5031954;28;20029;-72
2022/01/27 09:45:57;;;;;;;3.28;2.58;;;4.20;82.30;;;;;;5038963;28;20033;-72
2022/01/27 09:48:26;;;;;;;0.30;0.30;;;4.50;87.80;;;;;;5035269;28;20052;-72
2022/01/27 09:51:22;;;;;;;1.88;0.55;;;4.60;80.10;;;;;;5038752;28;20127;-70
2022/01/27 09:53:56;;;;;;;0.30;0.30;;;4.80;79.20;;;;;;5037923;28;20397;-70
2022/01/27 09:56:24;;;;;;;1.00;0.60;;;5.00;76.50;;;;;;5042646;28;20107;-71
2022/01/27 09:58:50;;;;;;;0.30;0.30;;;5.20;75.40;;;;;;5050184;28;20029;-70
2022/01/27 10:01:16;;;;;;;0.20;0.20;;;5.50;74.90;;;;;;5047816;28;20029;-72
2022/01/27 10:03:58;;;;;;;0.32;0.32;;;5.80;73.40;;;;;;5052216;28;20166;-71
2022/01/27 10:06:32;;;;;;;0.50;0.50;;;6.20;73.20;;;;;;5040880;28;20052;-72
2022/01/27 10:09:18;;;;;;;7.45;0.45;;;6.50;68.80;;;;;;5015201;28;20397;-72
2022/01/27 10:11:47;;;;;;;0.20;0.20;;;6.80;67.50;;;;;;5031337;28;20025;-72
2022/01/27 10:14:22;;;;;;;0.20;0.20;;;7.50;67.40;;;;;;5031322;28;20029;-72
2022/01/27 10:16:50;;;;;;;0.20;0.20;;;8.10;65.40;;;;;;5032631;28;20477;-72
2022/01/27 10:19:17;;;;;;;0.90;0.70;;;8.70;65.60;;;;;;5030780;28;20404;-72
2022/01/27 10:21:43;;;;;;;0.13;0.13;;;9.20;59.80;;;;;;5032564;28;20033;-72
2022/01/27 10:24:26;;;;;;;0.20;0.20;;;9.50;58.00;;;;;;5032549;28;20130;-72
2022/01/27 10:29:35;;;;;;;0.10;0.10;;;10.70;54.30;;;;;;5029855;28;20057;-72
2022/01/27 10:32:06;;;;;;;0.20;0.20;;;11.20;54.00;;;;;;5026019;28;20018;-72
2022/01/27 10:34:59;;;;;;;0.13;0.13;;;12.00;51.90;;;;;;5031021;28;20283;-70
2022/01/27 10:37:25;;;;;;;0.22;0.22;;;12.40;50.80;;;;;;5026864;28;20028;-71
2022/01/27 10:39:51;;;;;;;0.22;0.22;;;12.60;48.80;;;;;;5031095;28;20053;-73
2022/01/27 10:42:21;;;;;;;0.32;0.32;;;12.60;47.50;;;;;;5013570;28;20079;-72
2022/01/27 10:44:54;;;;;;;6.13;0.82;;;12.50;47.40;;;;;;5030812;28;20409;-71
2022/01/27 10:47:27;;;;;;;1.85;1.08;;;11.60;47.20;;;;;;5030306;28;20017;-72
2022/01/27 10:50:05;;;;;;;0.40;0.40;;;11.40;47.90;;;;;;5030182;28;20404;-72
2022/01/27 10:52:46;;;;;;;0.10;0.10;;;11.70;48.10;;;;;;5015383;28;20033;-72
2022/01/27 10:55:18;;;;;;;2.78;0.70;;;11.80;48.10;;;;;;5030697;28;20473;-72
2022/01/27 10:57:50;;;;;;;2.72;0.65;;;12.50;46.00;;;;;;5023776;28;20223;-73
2022/01/27 11:00:19;;;;;;;10.60;0.65;;;12.70;46.60;;;;;;5025689;28;20079;-75
2022/01/27 11:02:57;;;;;;;12.05;1.27;;;12.90;46.20;;;;;;5031198;28;20022;-72
2022/01/27 11:05:29;;;;;;;0.65;0.63;;;12.60;45.50;;;;;;5030962;28;20037;-71
2022/01/27 11:07:55;;;;;;;;;;;12.20;45.90;;;;;;5031575;28;20033;-72
2022/01/27 11:10:21;;;;;;;0.45;0.45;;;12.20;46.20;;;;;;5020394;28;20387;-73
2022/01/27 11:12:49;;;;;;;0.82;0.65;;;12.30;47.10;;;;;;5030768;28;20017;-72
2022/01/27 11:15:18;;;;;;;0.13;0.13;;;12.40;46.00;;;;;;5030790;28;20025;-72
2022/01/27 11:17:45;;;;;;;0.68;0.68;;;12.30;46.20;;;;;;5030783;28;20093;-72
2022/01/27 11:28:01;;;;;;;0.10;0.10;;;13.90;43.50;;;;;;4994380;28;1063401;-72
2022/01/27 11:30:59;;;;;;;0.30;0.30;;;13.90;42.80;;;;;;5031138;28;20030;-72
2022/01/27 11:33:33;;;;;;;0.13;0.13;;;13.20;43.80;;;;;;5030851;28;20116;-72
2022/01/27 11:36:07;;;;;;;0.22;0.22;;;13.90;44.00;;;;;;5030944;28;20032;-72
2022/01/27 11:38:32;;;;;;;0.13;0.13;;;14.00;43.60;;;;;;5030378;28;20028;-72
2022/01/27 11:41:01;;;;;;;0.13;0.13;;;13.90;43.50;;;;;;5035930;28;20061;-73
2022/01/27 11:43:34;;;;;;;0.10;0.10;;;14.90;43.40;;;;;;5034698;28;20033;-76
2022/01/27 11:46:17;;;;;;;0.45;0.40;;;16.00;41.80;;;;;;5031030;28;20067;-77
2022/01/27 11:48:42;;;;;;;0.10;0.10;;;15.50;40.70;;;;;;5017174;28;20025;-77
2022/01/27 11:51:13;;;;;;;0.57;0.30;;;15.90;40.30;;;;;;5014990;28;20028;-77
2022/01/27 11:53:45;;;;;;;0.93;0.90;;;16.30;40.00;;;;;;5032026;28;20044;-77
2022/01/27 11:56:35;;;;;;;2.83;2.60;;;16.10;40.30;;;;;;5031911;28;20390;-77
2022/01/27 11:59:03;;;;;;;0.10;0.10;;;16.00;40.50;;;;;;5022703;28;20635;-76
2022/01/27 12:01:31;;;;;;;2.20;0.95;;;15.80;39.80;;;;;;5031036;28;20025;-77
2022/01/27 12:04:02;;;;;;;15.77;2.03;;;15.70;39.60;;;;;;5034509;28;20021;-77
2022/01/27 12:06:29;;;;;;;0.20;0.20;;;15.10;40.00;;;;;;5024527;28;21225;-76
2022/01/27 12:09:20;;;;;;;0.30;0.30;;;15.10;40.60;;;;;;5027820;28;20095;-77
2022/01/27 12:11:50;;;;;;;1.10;1.00;;;14.80;40.80;;;;;;5027240;28;20041;-76
2022/01/27 12:14:21;;;;;;;0.10;0.10;;;15.10;39.90;;;;;;5034677;28;20268;-77
2022/01/27 12:17:10;;;;;;;3.03;2.28;;;15.60;40.80;;;;;;5038660;28;20397;-77
2022/01/27 12:19:45;;;;;;;0.13;0.13;;;16.10;39.80;;;;;;5033278;28;20120;-77
2022/01/27 12:22:11;;;;;;;1.27;1.23;;;16.00;39.30;;;;;;5015914;28;20029;-77
2022/01/27 12:24:50;;;;;;;1.17;0.47;;;15.80;39.40;;;;;;5034642;28;20026;-77
2022/01/27 12:27:18;;;;;;;1.00;0.60;;;16.30;39.40;;;;;;5032605;28;20121;-77
2022/01/27 12:29:55;;;;;;;2.38;0.68;;;15.60;39.60;;;;;;5004751;28;20544;-76
2022/01/27 12:32:25;;;;;;;0.10;0.10;;;15.50;39.10;;;;;;5033059;28;20445;-75
2022/01/27 12:34:54;;;;;;;1.08;0.68;;;15.80;38.70;;;;;;5018596;28;20021;-76
2022/01/27 12:37:25;;;;;;;0.38;0.38;;;15.10;38.00;;;;;;5033012;28;20024;-76
2022/01/27 12:39:56;;;;;;;0.10;0.10;;;14.30;39.20;;;;;;5033976;28;20029;-77
2022/01/27 12:42:28;;;;;;;0.30;0.20;;;14.30;39.20;;;;;;5033902;28;20026;-76
2022/01/27 12:45:02;;;;;;;0.88;0.45;;;14.50;38.70;;;;;;5033825;28;20029;-76
2022/01/27 12:47:30;;;;;;;0.10;0.10;;;14.20;38.60;;;;;;5036313;28;20466;-73
2022/01/27 12:50:07;;;;;;;0.10;0.10;;;14.30;40.40;;;;;;5028423;28;20018;-76
2022/01/27 12:52:39;;;;;;;0.10;0.10;;;14.70;39.40;;;;;;5032783;28;20112;-77
2022/01/27 12:55:06;;;;;;;0.10;0.10;;;14.70;39.30;;;;;;5022601;28;20029;-77
2022/01/27 12:57:32;;;;;;;0.10;0.10;;;14.60;38.80;;;;;;5032795;28;20033;-76
2022/01/27 13:00:00;;;;;;;0.10;0.10;;;14.80;39.40;;;;;;5031714;28;20022;-76
2022/01/27 13:02:27;;;;;;;0.10;0.10;;;14.80;38.50;;;;;;5021258;28;20030;-76
2022/01/27 13:04:55;;;;;;;0.10;0.10;;;14.20;38.90;;;;;;5032367;28;20059;-76
2022/01/27 13:07:22;;;;;;;0.85;0.40;;;14.40;40.30;;;;;;5024511;28;20682;-76
2022/01/27 13:10:11;;;;;;;0.20;0.20;;;14.10;38.70;;;;;;5033006;28;20022;-76
2022/01/27 13:12:52;;;;;;;0.10;0.10;;;14.30;39.10;;;;;;5030309;28;20029;-76
2022/01/27 13:15:23;;;;;;;0.20;0.20;;;14.30;39.30;;;;;;5010885;28;20017;-75
2022/01/27 13:17:55;;;;;;;0.10;0.10;;;14.70;38.80;;;;;;5021914;28;20052;-76
2022/01/27 13:20:28;;;;;;;0.10;0.10;;;15.60;37.90;;;;;;5020652;28;20112;-76
2022/01/27 13:23:01;;;;;;;0.13;0.13;;;15.60;38.00;;;;;;5004811;28;20026;-76
2022/01/27 13:25:40;;;;;;;0.77;0.77;;;15.30;38.70;;;;;;5033564;28;20120;-75
2022/01/27 13:28:14;;;;;;;0.10;0.10;;;15.40;37.60;;;;;;5033079;28;20029;-76
2022/01/27 13:30:40;;;;;;;0.10;0.10;;;16.00;37.50;;;;;;5033086;28;20408;-76
2022/01/27 13:33:09;;;;;;;0.15;0.15;;;16.00;36.60;;;;;;5032560;28;20026;-76
2022/01/27 13:35:36;;;;;;;0.10;0.10;;;15.90;37.30;;;;;;5009117;28;20029;-77
2022/01/27 13:38:23;;;;;;;0.20;0.20;;;15.00;36.70;;;;;;5032210;28;20033;-76
2022/01/27 13:41:24;;;;;;;0.20;0.20;;;14.00;38.80;;;;;;5021693;28;20022;-76
2022/01/27 13:44:06;;;;;;;1.20;0.40;;;13.50;40.60;;;;;;5015761;28;20021;-76
2022/01/27 13:46:40;;;;;;;0.50;0.50;;;13.10;40.50;;;;;;5005794;28;20025;-75
2022/01/27 13:49:30;;;;;;;0.20;0.20;;;11.80;41.90;;;;;;5032544;28;20390;-76